createdAt,value
2022-10-05T00:00:12.496Z,3.60
2022-10-05T00:00:35.251Z,4.00
2022-10-05T00:00:59.450Z,3.55
2022-10-05T00:01:26.976Z,3.58
2022-10-05T00:01:50.103Z,3.63
2022-10-05T00:02:19.927Z,3.38
2022-10-05T00:02:42.656Z,3.75
2022-10-05T00:03:09.154Z,3.80
2022-10-05T00:03:39.053Z,3.60
2022-10-05T00:04:06.770Z,3.50
2022-10-05T00:04:29.948Z,3.72
2022-10-05T00:04:54.103Z,3.60
2022-10-05T00:05:27.436Z,3.63
2022-10-05T00:05:50.240Z,3.88
2022-10-05T00:06:15.202Z,3.53
2022-10-05T00:06:37.930Z,3.45
2022-10-05T00:07:02.948Z,3.65
2022-10-05T00:07:25.836Z,4.00
2022-10-05T00:07:48.627Z,3.90
2022-10-05T00:08:14.723Z,4.00
2022-10-05T00:08:37.418Z,3.40
2022-10-05T00:09:00.808Z,3.60
2022-10-05T00:09:23.548Z,3.50
2022-10-05T00:09:48.484Z,4.10
2022-10-05T00:10:11.872Z,3.58
2022-10-05T00:10:34.548Z,3.50
2022-10-05T00:10:57.345Z,3.22
2022-10-05T00:11:20.152Z,3.30
2022-10-05T00:11:43.187Z,3.30
2022-10-05T00:12:13.437Z,3.40
2022-10-05T00:12:36.167Z,3.55
2022-10-05T00:12:58.944Z,3.50
2022-10-05T00:13:22.877Z,3.70
2022-10-05T00:13:47.381Z,3.75
2022-10-05T00:14:17.712Z,3.55
2022-10-05T00:14:40.472Z,3.28
2022-10-05T00:15:03.259Z,3.30
2022-10-05T00:15:25.952Z,3.30
2022-10-05T00:15:49.016Z,3.35
2022-10-05T00:16:15.442Z,3.90
2022-10-05T00:16:38.336Z,3.63
2022-10-05T00:17:02.100Z,3.67
2022-10-05T00:17:26.148Z,3.53
2022-10-05T00:17:49.003Z,3.58
2022-10-05T00:18:15.869Z,3.55
2022-10-05T00:18:38.587Z,3.50
2022-10-05T00:19:01.283Z,3.38
2022-10-05T00:19:26.818Z,3.40
2022-10-05T00:19:52.503Z,3.60
2022-10-05T00:20:17.723Z,3.40
2022-10-05T00:20:42.984Z,3.70
2022-10-05T00:21:13.128Z,3.85
2022-10-05T00:21:35.923Z,3.38
2022-10-05T00:21:59.889Z,3.40
2022-10-05T00:22:24.699Z,3.50
2022-10-05T00:22:47.514Z,3.63
2022-10-05T00:23:17.097Z,3.75
2022-10-05T00:23:39.723Z,3.40
2022-10-05T00:24:02.408Z,3.30
2022-10-05T00:24:25.131Z,3.30
2022-10-05T00:24:48.634Z,3.50
2022-10-05T00:25:12.972Z,3.90
2022-10-05T00:25:35.654Z,3.65
2022-10-05T00:26:03.828Z,3.53
2022-10-05T00:26:27.793Z,3.42
2022-10-05T00:26:55.412Z,3.67
2022-10-05T00:27:21.655Z,3.72
2022-10-05T00:27:53.707Z,3.85
2022-10-05T00:28:18.737Z,3.38
2022-10-05T00:28:41.584Z,3.65
2022-10-05T00:29:08.998Z,3.55
2022-10-05T00:29:33.459Z,3.58
2022-10-05T00:29:59.054Z,4.00
2022-10-05T00:30:21.979Z,3.72
2022-10-05T00:30:44.706Z,3.58
2022-10-05T00:31:11.466Z,3.78
2022-10-05T00:31:34.823Z,3.40
2022-10-05T00:31:57.701Z,3.42
2022-10-05T00:32:20.594Z,3.85
2022-10-05T00:32:43.368Z,3.38
2022-10-05T00:33:06.089Z,3.10
2022-10-05T00:33:32.078Z,3.53
2022-10-05T00:33:55.147Z,3.95
2022-10-05T00:34:17.842Z,3.60
2022-10-05T00:34:40.730Z,3.38
2022-10-05T00:35:03.399Z,3.50
2022-10-05T00:35:29.472Z,3.30
2022-10-05T00:35:54.111Z,3.50
2022-10-05T00:36:16.845Z,3.75
2022-10-05T00:36:39.840Z,3.70
2022-10-05T00:37:02.619Z,4.18
2022-10-05T00:37:25.298Z,3.80
2022-10-05T00:37:53.990Z,3.65
2022-10-05T00:38:16.683Z,3.67
2022-10-05T00:38:39.358Z,3.67
2022-10-05T00:39:02.065Z,3.80
2022-10-05T00:39:24.802Z,3.53
2022-10-05T00:39:47.511Z,3.40
2022-10-05T00:40:17.300Z,3.60
2022-10-05T00:40:46.569Z,3.67
2022-10-05T00:41:11.925Z,3.70
2022-10-05T00:41:41.097Z,3.75
2022-10-05T00:42:18.645Z,3.63
2022-10-05T00:42:44.789Z,3.63
2022-10-05T00:43:32.329Z,4.00
2022-10-05T00:44:14.383Z,3.88
2022-10-05T00:44:39.650Z,3.70
2022-10-05T00:45:03.962Z,3.85
2022-10-05T00:45:28.253Z,4.10
2022-10-05T00:45:51.776Z,4.15
2022-10-05T00:46:16.264Z,3.80
2022-10-05T00:46:46.756Z,3.95
2022-10-05T00:47:24.211Z,3.53
2022-10-05T00:47:51.736Z,3.95
2022-10-05T00:48:18.205Z,3.70
2022-10-05T00:48:45.765Z,3.70
2022-10-05T00:49:12.640Z,3.83
2022-10-05T00:49:47.905Z,4.03
2022-10-05T00:50:20.482Z,3.90
2022-10-05T00:50:55.050Z,4.10
2022-10-05T00:51:22.476Z,4.07
2022-10-05T00:51:47.857Z,3.70
2022-10-05T00:52:20.385Z,4.20
2022-10-05T00:52:47.516Z,4.10
2022-10-05T00:53:19.007Z,3.90
2022-10-05T00:53:44.423Z,3.90
2022-10-05T00:54:18.196Z,3.80
2022-10-05T00:54:44.167Z,4.00
2022-10-05T00:55:10.731Z,3.97
2022-10-05T00:55:39.001Z,3.85
2022-10-05T00:56:03.942Z,3.63
2022-10-05T00:56:38.726Z,3.25
2022-10-05T00:57:17.591Z,3.53
2022-10-05T00:57:46.851Z,3.75
2022-10-05T00:58:16.115Z,3.55
2022-10-05T00:58:46.725Z,3.40
2022-10-05T00:59:13.948Z,3.55
2022-10-05T00:59:44.302Z,3.65
2022-10-05T01:00:08.056Z,3.47
2022-10-05T01:00:30.796Z,3.15
2022-10-05T01:01:01.456Z,3.22
2022-10-05T01:01:27.406Z,3.95
2022-10-05T01:01:53.322Z,3.50
2022-10-05T01:02:16.738Z,3.65
2022-10-05T01:02:46.891Z,3.63
2022-10-05T01:03:11.780Z,3.58
2022-10-05T01:03:40.144Z,3.78
2022-10-05T01:04:08.336Z,3.50
2022-10-05T01:04:34.726Z,3.47
2022-10-05T01:04:59.518Z,3.63
2022-10-05T01:05:43.529Z,3.50
2022-10-05T01:06:12.464Z,3.33
2022-10-05T01:06:40.808Z,3.40
2022-10-05T01:07:09.445Z,3.30
2022-10-05T01:07:36.332Z,3.40
2022-10-05T01:08:02.483Z,3.65
2022-10-05T01:08:31.137Z,3.80
2022-10-05T01:08:57.733Z,3.55
2022-10-05T01:09:22.893Z,3.72
2022-10-05T01:09:49.614Z,3.53
2022-10-05T01:10:16.122Z,3.33
2022-10-05T01:10:41.292Z,3.50
2022-10-05T01:11:07.940Z,3.30
2022-10-05T01:11:33.449Z,3.25
2022-10-05T01:12:00.857Z,3.10
2022-10-05T01:12:26.688Z,3.70
2022-10-05T01:12:54.887Z,3.35
2022-10-05T01:13:21.925Z,3.50
2022-10-05T01:13:49.444Z,3.40
2022-10-05T01:14:16.369Z,3.42
2022-10-05T01:14:45.438Z,3.63
2022-10-05T01:15:11.233Z,3.58
2022-10-05T01:15:36.656Z,3.72
2022-10-05T01:16:04.478Z,3.70
2022-10-05T01:16:30.139Z,3.58
2022-10-05T01:16:55.757Z,3.60
2022-10-05T01:17:22.309Z,3.60
2022-10-05T01:17:48.183Z,3.65
2022-10-05T01:18:12.819Z,3.55
2022-10-05T01:18:39.335Z,3.92
2022-10-05T01:19:07.050Z,3.78
2022-10-05T01:20:05.036Z,3.50
2022-10-05T01:20:35.922Z,3.40
2022-10-05T01:21:01.436Z,3.30
2022-10-05T01:21:26.411Z,3.40
2022-10-05T01:21:51.086Z,3.50
2022-10-05T01:22:18.635Z,3.60
2022-10-05T01:22:51.249Z,3.40
2022-10-05T01:23:46.580Z,3.30
2022-10-05T01:24:40.362Z,3.55
2022-10-05T01:25:13.436Z,3.53
2022-10-05T01:25:38.556Z,3.30
2022-10-05T01:26:09.143Z,3.30
2022-10-05T01:26:43.706Z,3.63
2022-10-05T01:27:15.871Z,3.80
2022-10-05T01:27:42.914Z,3.72
2022-10-05T01:28:07.946Z,3.33
2022-10-05T01:28:32.098Z,3.40
2022-10-05T01:28:56.776Z,3.20
2022-10-05T01:29:22.331Z,3.50
2022-10-05T01:29:48.350Z,3.47
2022-10-05T01:30:12.894Z,3.70
2022-10-05T01:30:38.160Z,3.70
2022-10-05T01:31:03.047Z,4.18
2022-10-05T01:31:27.487Z,4.05
2022-10-05T01:31:53.706Z,4.20
2022-10-05T01:32:19.810Z,4.28
2022-10-05T01:32:45.277Z,3.90
2022-10-05T01:33:12.620Z,3.95
2022-10-05T01:33:37.836Z,4.18
2022-10-05T01:34:10.570Z,4.07
2022-10-05T01:34:38.429Z,3.70
2022-10-05T01:35:06.894Z,3.40
2022-10-05T01:35:37.140Z,3.47
2022-10-05T01:36:02.894Z,3.80
2022-10-05T01:36:28.179Z,3.70
2022-10-05T01:36:53.854Z,4.03
2022-10-05T01:37:19.795Z,3.78
2022-10-05T01:37:48.202Z,3.72
2022-10-05T01:38:19.880Z,4.30
2022-10-05T01:38:45.461Z,3.92
2022-10-05T01:39:11.700Z,3.83
2022-10-05T01:39:37.753Z,4.00
2022-10-05T01:40:04.432Z,3.85
2022-10-05T01:40:31.513Z,3.95
2022-10-05T01:40:59.048Z,3.75
2022-10-05T01:41:28.024Z,3.72
2022-10-05T01:41:53.963Z,3.90
2022-10-05T01:42:22.075Z,4.38
2022-10-05T01:42:52.890Z,4.30
2022-10-05T01:43:19.112Z,4.47
2022-10-05T01:43:46.756Z,4.20
2022-10-05T01:44:10.897Z,4.15
2022-10-05T01:44:36.636Z,4.10
2022-10-05T01:45:02.383Z,4.15
2022-10-05T01:45:28.127Z,4.10
2022-10-05T01:45:56.311Z,4.00
2022-10-05T01:46:24.836Z,4.28
2022-10-05T01:46:50.966Z,4.00
2022-10-05T01:47:16.782Z,4.25
2022-10-05T01:47:43.881Z,4.38
2022-10-05T01:48:10.097Z,4.25
2022-10-05T01:48:37.738Z,4.20
2022-10-05T01:49:17.946Z,3.95
2022-10-05T01:49:43.668Z,4.13
2022-10-05T01:50:09.778Z,4.10
2022-10-05T01:50:35.097Z,4.15
2022-10-05T01:51:02.101Z,4.35
2022-10-05T01:51:34.551Z,4.35
2022-10-05T01:52:02.231Z,3.95
2022-10-05T01:52:28.906Z,4.28
2022-10-05T01:52:56.082Z,4.35
2022-10-05T01:53:23.802Z,4.22
2022-10-05T01:53:53.604Z,4.38
2022-10-05T01:54:22.806Z,4.45
2022-10-05T01:54:51.531Z,4.38
2022-10-05T01:55:19.165Z,4.38
2022-10-05T01:55:45.547Z,4.63
2022-10-05T01:56:13.619Z,4.50
2022-10-05T01:56:39.645Z,4.25
2022-10-05T01:57:06.865Z,4.60
2022-10-05T01:57:34.491Z,4.03
2022-10-05T01:58:11.170Z,3.92
2022-10-05T01:58:36.636Z,4.07
2022-10-05T01:59:04.154Z,4.63
2022-10-05T01:59:32.154Z,4.07
2022-10-05T02:00:04.622Z,4.28
2022-10-05T02:00:27.349Z,4.50
2022-10-05T02:00:54.834Z,4.80
2022-10-05T02:01:20.389Z,5.03
2022-10-05T02:01:48.016Z,4.80
2022-10-05T02:02:11.561Z,4.95
2022-10-05T02:02:36.394Z,4.57
2022-10-05T02:03:01.946Z,4.55
2022-10-05T02:03:27.036Z,4.82
2022-10-05T02:03:53.636Z,4.90
2022-10-05T02:04:42.698Z,4.35
2022-10-05T02:05:04.784Z,4.90
2022-10-05T02:05:30.285Z,4.45
2022-10-05T02:05:55.686Z,4.80
2022-10-05T02:06:20.145Z,4.97
2022-10-05T02:06:44.438Z,4.90
2022-10-05T02:07:09.455Z,4.80
2022-10-05T02:07:34.715Z,4.55
2022-10-05T02:07:59.327Z,4.75
2022-10-05T02:08:25.325Z,4.88
2022-10-05T02:08:50.614Z,4.95
2022-10-05T02:09:14.879Z,4.85
2022-10-05T02:09:40.147Z,4.82
2022-10-05T02:10:05.079Z,4.65
2022-10-05T02:10:30.780Z,5.20
2022-10-05T02:10:55.874Z,4.68
2022-10-05T02:11:18.549Z,4.85
2022-10-05T02:11:41.726Z,4.75
2022-10-05T02:12:08.409Z,4.97
2022-10-05T02:12:33.920Z,5.05
2022-10-05T02:12:59.221Z,4.60
2022-10-05T02:13:28.161Z,5.00
2022-10-05T02:13:53.319Z,4.80
2022-10-05T02:14:17.940Z,5.10
2022-10-05T02:14:43.504Z,5.05
2022-10-05T02:15:10.710Z,4.65
2022-10-05T02:15:37.659Z,4.90
2022-10-05T02:16:02.367Z,5.15
2022-10-05T02:16:28.608Z,4.90
2022-10-05T02:16:51.820Z,4.63
2022-10-05T02:17:15.345Z,4.75
2022-10-05T02:17:40.604Z,4.90
2022-10-05T02:18:06.410Z,5.10
2022-10-05T02:18:31.799Z,5.40
2022-10-05T02:18:56.679Z,5.32
2022-10-05T02:19:22.583Z,4.93
2022-10-05T02:19:46.581Z,5.25
2022-10-05T02:20:11.561Z,4.97
2022-10-05T02:20:35.379Z,4.60
2022-10-05T02:20:58.086Z,5.05
2022-10-05T02:21:23.385Z,4.82
2022-10-05T02:21:49.118Z,5.30
2022-10-05T02:22:15.224Z,4.50
2022-10-05T02:22:38.700Z,4.68
2022-10-05T02:23:04.089Z,4.50
2022-10-05T02:23:29.280Z,4.50
2022-10-05T02:23:54.720Z,4.57
2022-10-05T02:24:19.569Z,5.05
2022-10-05T02:24:44.787Z,5.10
2022-10-05T02:25:10.153Z,4.63
2022-10-05T02:25:34.822Z,4.28
2022-10-05T02:25:57.573Z,5.03
2022-10-05T02:26:20.327Z,5.03
2022-10-05T02:26:43.306Z,4.63
2022-10-05T02:27:09.094Z,4.47
2022-10-05T02:27:33.489Z,4.53
2022-10-05T02:27:58.825Z,4.90
2022-10-05T02:28:23.840Z,4.97
2022-10-05T02:28:47.998Z,5.28
2022-10-05T02:29:11.965Z,4.93
2022-10-05T02:29:36.157Z,4.70
2022-10-05T02:30:01.949Z,4.95
2022-10-05T02:30:24.683Z,5.00
2022-10-05T02:30:49.580Z,5.15
2022-10-05T02:31:13.326Z,4.90
2022-10-05T02:31:38.399Z,4.90
2022-10-05T02:32:03.683Z,5.00
2022-10-05T02:32:27.802Z,5.00
2022-10-05T02:32:54.211Z,4.90
2022-10-05T02:33:19.781Z,5.13
2022-10-05T02:33:42.510Z,5.38
2022-10-05T02:34:24.708Z,4.90
2022-10-05T02:34:47.521Z,5.28
2022-10-05T02:35:14.016Z,4.90
2022-10-05T02:35:36.816Z,4.70
2022-10-05T02:36:02.250Z,5.25
2022-10-05T02:36:29.121Z,5.03
2022-10-05T02:36:55.341Z,5.30
2022-10-05T02:37:23.356Z,5.38
2022-10-05T02:37:50.548Z,4.65
2022-10-05T02:38:16.336Z,5.38
2022-10-05T02:38:44.162Z,5.00
2022-10-05T02:39:09.756Z,5.38
2022-10-05T02:39:36.256Z,5.50
2022-10-05T02:40:10.305Z,5.43
2022-10-05T02:40:40.653Z,5.15
2022-10-05T02:41:06.562Z,5.32
2022-10-05T02:41:37.600Z,5.53
2022-10-05T02:42:03.521Z,5.45
2022-10-05T02:42:28.634Z,5.20
2022-10-05T02:42:56.919Z,4.90
2022-10-05T02:43:26.244Z,4.95
2022-10-05T02:43:52.539Z,5.10
2022-10-05T02:44:20.650Z,4.90
2022-10-05T02:44:46.067Z,5.00
2022-10-05T02:45:14.311Z,5.10
2022-10-05T02:45:41.678Z,5.00
2022-10-05T02:46:07.496Z,4.90
2022-10-05T02:46:33.324Z,4.82
2022-10-05T02:46:58.736Z,4.47
2022-10-05T02:47:27.528Z,4.50
2022-10-05T02:47:53.897Z,4.75
2022-10-05T02:48:21.104Z,5.18
2022-10-05T02:48:48.637Z,5.07
2022-10-05T02:49:18.875Z,4.72
2022-10-05T02:49:43.829Z,4.80
2022-10-05T02:50:11.112Z,4.80
2022-10-05T02:50:37.572Z,4.85
2022-10-05T02:51:04.325Z,4.93
2022-10-05T02:51:27.841Z,5.10
2022-10-05T02:51:54.404Z,5.30
2022-10-05T02:52:22.128Z,5.18
2022-10-05T02:52:47.750Z,4.78
2022-10-05T02:53:15.846Z,5.07
2022-10-05T02:53:43.064Z,4.80
2022-10-05T02:54:09.285Z,4.57
2022-10-05T02:54:40.501Z,4.90
2022-10-05T02:55:06.257Z,4.72
2022-10-05T02:55:31.811Z,4.60
2022-10-05T02:56:01.914Z,4.78
2022-10-05T02:56:28.155Z,4.93
2022-10-05T02:56:55.331Z,5.15
2022-10-05T02:57:21.916Z,4.93
2022-10-05T02:57:47.585Z,5.20
2022-10-05T02:58:12.536Z,5.03
2022-10-05T02:58:40.645Z,4.72
2022-10-05T02:59:07.372Z,5.28
2022-10-05T02:59:34.170Z,4.95
2022-10-05T03:00:00.530Z,4.70
2022-10-05T03:00:24.301Z,4.90
2022-10-05T03:00:48.384Z,4.88
2022-10-05T03:01:15.264Z,5.00
2022-10-05T03:01:40.311Z,4.95
2022-10-05T03:02:08.014Z,4.63
2022-10-05T03:02:34.075Z,4.25
2022-10-05T03:03:01.275Z,4.70
2022-10-05T03:03:28.337Z,4.63
2022-10-05T03:03:54.851Z,5.03
2022-10-05T03:04:26.306Z,4.63
2022-10-05T03:04:54.700Z,4.70
2022-10-05T03:05:20.451Z,4.82
2022-10-05T03:05:46.630Z,4.60
2022-10-05T03:06:13.441Z,4.70
2022-10-05T03:06:43.119Z,4.28
2022-10-05T03:07:12.336Z,4.28
2022-10-05T03:07:39.160Z,4.43
2022-10-05T03:08:03.318Z,4.30
2022-10-05T03:08:29.765Z,4.35
2022-10-05T03:09:04.065Z,4.72
2022-10-05T03:09:29.596Z,4.50
2022-10-05T03:10:00.772Z,4.57
2022-10-05T03:10:28.145Z,4.70
2022-10-05T03:10:56.323Z,4.80
2022-10-05T03:11:22.732Z,4.68
2022-10-05T03:11:50.341Z,4.65
2022-10-05T03:12:21.124Z,4.47
2022-10-05T03:12:52.805Z,4.22
2022-10-05T03:13:20.150Z,4.75
2022-10-05T03:13:47.841Z,4.78
2022-10-05T03:14:13.765Z,4.53
2022-10-05T03:14:39.987Z,4.40
2022-10-05T03:15:07.361Z,4.20
2022-10-05T03:15:48.312Z,4.50
2022-10-05T03:16:21.021Z,4.45
2022-10-05T03:16:49.185Z,4.50
2022-10-05T03:17:13.760Z,4.57
2022-10-05T03:17:40.806Z,4.28
2022-10-05T03:18:07.976Z,4.00
2022-10-05T03:18:39.810Z,4.18
2022-10-05T03:19:10.588Z,4.45
2022-10-05T03:19:44.612Z,4.30
2022-10-05T03:20:14.246Z,4.72
2022-10-05T03:20:40.486Z,3.97
2022-10-05T03:21:09.809Z,4.72
2022-10-05T03:21:41.495Z,4.20
2022-10-05T03:22:08.901Z,4.53
2022-10-05T03:22:38.878Z,4.40
2022-10-05T03:23:01.926Z,4.40
2022-10-05T03:23:28.730Z,4.57
2022-10-05T03:23:59.542Z,4.30
2022-10-05T03:24:44.601Z,4.55
2022-10-05T03:25:30.563Z,4.28
2022-10-05T03:26:00.390Z,4.40
2022-10-05T03:26:33.736Z,4.40
2022-10-05T03:27:00.785Z,4.20
2022-10-05T03:27:30.161Z,4.28
2022-10-05T03:27:55.955Z,4.03
2022-10-05T03:28:22.220Z,4.20
2022-10-05T03:28:51.680Z,4.20
2022-10-05T03:29:24.155Z,4.38
2022-10-05T03:29:50.106Z,4.18
2022-10-05T03:30:15.465Z,4.60
2022-10-05T03:30:41.326Z,4.18
2022-10-05T03:31:05.014Z,4.53
2022-10-05T03:31:31.085Z,4.20
2022-10-05T03:31:57.223Z,4.00
2022-10-05T03:32:23.349Z,3.85
2022-10-05T03:32:51.837Z,4.20
2022-10-05T03:33:17.095Z,4.30
2022-10-05T03:33:42.589Z,4.60
2022-10-05T03:34:08.316Z,4.60
2022-10-05T03:34:35.168Z,4.32
2022-10-05T03:35:02.414Z,4.50
2022-10-05T03:35:29.121Z,4.32
2022-10-05T03:35:56.481Z,4.43
2022-10-05T03:36:23.237Z,4.20
2022-10-05T03:36:49.707Z,4.10
2022-10-05T03:37:15.835Z,4.13
2022-10-05T03:37:42.400Z,3.95
2022-10-05T03:38:09.095Z,4.10
2022-10-05T03:38:34.865Z,4.28
2022-10-05T03:39:01.469Z,4.60
2022-10-05T03:39:27.044Z,4.40
2022-10-05T03:39:54.028Z,4.28
2022-10-05T03:40:25.376Z,4.40
2022-10-05T03:40:50.874Z,4.03
2022-10-05T03:41:19.102Z,4.50
2022-10-05T03:41:43.374Z,4.55
2022-10-05T03:42:10.684Z,4.05
2022-10-05T03:42:36.462Z,4.15
2022-10-05T03:43:06.739Z,4.50
2022-10-05T03:43:57.541Z,4.60
2022-10-05T03:44:35.759Z,5.45
2022-10-05T03:45:00.448Z,5.30
2022-10-05T03:45:26.447Z,4.82
2022-10-05T03:45:54.882Z,4.40
2022-10-05T03:46:19.907Z,4.38
2022-10-05T03:46:49.839Z,4.70
2022-10-05T03:47:16.642Z,4.75
2022-10-05T03:47:45.708Z,4.97
2022-10-05T03:48:09.934Z,4.93
2022-10-05T03:48:34.669Z,4.70
2022-10-05T03:49:03.073Z,4.82
2022-10-05T03:49:31.288Z,4.43
2022-10-05T03:50:02.307Z,4.50
2022-10-05T03:50:31.484Z,4.90
2022-10-05T03:50:59.209Z,5.40
2022-10-05T03:51:25.328Z,4.88
2022-10-05T03:51:51.601Z,4.93
2022-10-05T03:52:16.447Z,4.80
2022-10-05T03:52:40.113Z,4.50
2022-10-05T03:53:04.417Z,3.95
2022-10-05T03:53:28.684Z,4.40
2022-10-05T03:53:57.015Z,4.60
2022-10-05T03:54:23.021Z,4.55
2022-10-05T03:54:48.097Z,4.53
2022-10-05T03:55:16.915Z,4.10
2022-10-05T03:55:42.737Z,5.10
2022-10-05T03:56:06.773Z,4.93
2022-10-05T03:56:31.701Z,5.53
2022-10-05T03:56:55.815Z,5.65
2022-10-05T03:57:19.767Z,5.28
2022-10-05T03:57:42.515Z,4.90
2022-10-05T03:58:07.458Z,5.40
2022-10-05T03:58:33.975Z,5.03
2022-10-05T03:58:57.905Z,5.00
2022-10-05T03:59:22.895Z,5.47
2022-10-05T03:59:52.015Z,4.72
2022-10-05T04:00:16.397Z,5.20
2022-10-05T04:00:39.251Z,4.82
2022-10-05T04:01:03.396Z,4.40
2022-10-05T04:01:36.115Z,5.07
2022-10-05T04:02:01.468Z,5.00
2022-10-05T04:02:27.405Z,5.15
2022-10-05T04:02:53.552Z,5.20
2022-10-05T04:03:19.006Z,5.07
2022-10-05T04:03:44.171Z,5.18
2022-10-05T04:04:07.671Z,5.35
2022-10-05T04:04:33.600Z,5.15
2022-10-05T04:04:59.525Z,4.93
2022-10-05T04:05:25.128Z,5.28
2022-10-05T04:05:50.880Z,5.72
2022-10-05T04:06:15.537Z,5.22
2022-10-05T04:06:44.061Z,5.25
2022-10-05T04:07:08.995Z,5.47
2022-10-05T04:07:37.436Z,5.63
2022-10-05T04:08:01.910Z,5.20
2022-10-05T04:08:29.850Z,5.35
2022-10-05T04:08:54.715Z,5.80
2022-10-05T04:09:23.055Z,5.45
2022-10-05T04:09:46.850Z,5.60
2022-10-05T04:10:15.035Z,5.65
2022-10-05T04:10:41.910Z,5.43
2022-10-05T04:11:06.241Z,5.60
2022-10-05T04:11:32.850Z,6.05
2022-10-05T04:11:58.715Z,5.97
2022-10-05T04:12:24.320Z,6.20
2022-10-05T04:12:49.776Z,5.97
2022-10-05T04:13:15.895Z,6.20
2022-10-05T04:13:42.620Z,6.00
2022-10-05T04:14:07.035Z,6.05
2022-10-05T04:14:34.431Z,5.93
2022-10-05T04:14:59.605Z,5.90
2022-10-05T04:15:27.362Z,6.20
2022-10-05T04:15:53.792Z,6.00
2022-10-05T04:16:18.631Z,5.78
2022-10-05T04:16:43.238Z,5.72
2022-10-05T04:17:09.140Z,5.60
2022-10-05T04:17:34.087Z,5.85
2022-10-05T04:17:58.379Z,5.70
2022-10-05T04:18:25.357Z,6.05
2022-10-05T04:18:50.529Z,5.88
2022-10-05T04:19:17.861Z,5.85
2022-10-05T04:19:44.541Z,5.60
2022-10-05T04:20:10.368Z,6.13
2022-10-05T04:20:36.656Z,5.93
2022-10-05T04:21:01.756Z,5.93
2022-10-05T04:21:25.429Z,5.38
2022-10-05T04:21:50.721Z,5.95
2022-10-05T04:22:16.005Z,5.70
2022-10-05T04:22:40.425Z,5.78
2022-10-05T04:23:07.866Z,5.28
2022-10-05T04:23:40.396Z,5.68
2022-10-05T04:24:05.315Z,5.88
2022-10-05T04:24:31.375Z,6.07
2022-10-05T04:24:56.298Z,5.60
2022-10-05T04:25:20.501Z,5.80
2022-10-05T04:25:44.327Z,5.38
2022-10-05T04:26:09.291Z,5.60
2022-10-05T04:26:35.782Z,6.00
2022-10-05T04:26:59.000Z,6.50
2022-10-05T04:27:22.655Z,6.10
2022-10-05T04:27:47.542Z,5.95
2022-10-05T04:28:12.504Z,6.10
2022-10-05T04:28:41.685Z,5.82
2022-10-05T04:29:07.830Z,5.70
2022-10-05T04:29:32.918Z,5.63
2022-10-05T04:29:57.823Z,5.68
2022-10-05T04:30:24.751Z,5.60
2022-10-05T04:30:47.989Z,5.45
2022-10-05T04:31:11.744Z,5.72
2022-10-05T04:31:43.285Z,5.60
2022-10-05T04:32:16.960Z,5.35
2022-10-05T04:32:41.926Z,5.40
2022-10-05T04:33:09.510Z,5.30
2022-10-05T04:33:32.649Z,6.20
2022-10-05T04:34:00.979Z,5.65
2022-10-05T04:34:47.596Z,5.60
2022-10-05T04:35:38.721Z,5.57
2022-10-05T04:36:26.565Z,5.70
2022-10-05T04:36:51.940Z,5.78
2022-10-05T04:37:18.384Z,5.82
2022-10-05T04:37:46.734Z,6.13
2022-10-05T04:38:17.400Z,5.70
2022-10-05T04:38:53.167Z,5.95
2022-10-05T04:39:20.254Z,5.63
2022-10-05T04:39:46.308Z,6.07
2022-10-05T04:40:15.797Z,5.88
2022-10-05T04:40:44.902Z,5.60
2022-10-05T04:41:19.854Z,5.93
2022-10-05T04:41:52.740Z,5.93
2022-10-05T04:42:20.306Z,6.53
2022-10-05T04:42:46.080Z,7.35
2022-10-05T04:43:13.673Z,6.95
2022-10-05T04:43:40.834Z,5.93
2022-10-05T04:44:14.073Z,5.70
2022-10-05T04:44:45.114Z,5.82
2022-10-05T04:45:14.978Z,6.25
2022-10-05T04:45:49.909Z,5.63
2022-10-05T04:46:21.141Z,5.70
2022-10-05T04:46:52.818Z,5.90
2022-10-05T04:47:23.899Z,6.30
2022-10-05T04:48:17.685Z,7.18
2022-10-05T04:48:55.988Z,6.90
2022-10-05T04:49:30.639Z,7.25
2022-10-05T04:50:04.093Z,7.28
2022-10-05T04:50:33.931Z,7.55
2022-10-05T04:51:03.998Z,6.97
2022-10-05T04:51:34.699Z,6.95
2022-10-05T04:52:00.170Z,7.10
2022-10-05T04:52:25.982Z,6.78
2022-10-05T04:52:53.411Z,6.70
2022-10-05T04:53:23.095Z,6.55
2022-10-05T04:53:50.829Z,6.70
2022-10-05T04:54:19.204Z,7.38
2022-10-05T04:54:47.753Z,7.43
2022-10-05T04:55:19.844Z,7.63
2022-10-05T04:55:48.963Z,6.43
2022-10-05T04:56:13.230Z,7.32
2022-10-05T04:56:38.834Z,7.07
2022-10-05T04:57:03.695Z,7.20
2022-10-05T04:57:28.608Z,7.18
2022-10-05T04:57:54.348Z,7.63
2022-10-05T04:58:21.933Z,7.72
2022-10-05T04:59:01.485Z,7.10
2022-10-05T04:59:55.119Z,7.25
2022-10-05T05:00:25.334Z,6.60
2022-10-05T05:00:55.239Z,6.70
2022-10-05T05:01:27.680Z,6.53
2022-10-05T05:02:03.686Z,6.80
2022-10-05T05:02:30.998Z,6.63
2022-10-05T05:03:04.806Z,7.00
2022-10-05T05:03:50.008Z,6.80
2022-10-05T05:04:35.269Z,6.50
2022-10-05T05:05:24.225Z,7.00
2022-10-05T05:06:15.954Z,6.53
2022-10-05T05:06:39.103Z,6.70
2022-10-05T05:07:09.083Z,6.35
2022-10-05T05:07:39.728Z,7.00
2022-10-05T05:08:12.180Z,6.38
2022-10-05T05:08:43.936Z,6.13
2022-10-05T05:09:31.359Z,6.78
2022-10-05T05:10:08.440Z,6.43
2022-10-05T05:11:06.970Z,6.50
2022-10-05T05:11:30.619Z,6.35
2022-10-05T05:12:04.020Z,6.40
2022-10-05T05:12:29.134Z,6.80
2022-10-05T05:12:57.360Z,6.05
2022-10-05T05:13:32.254Z,6.20
2022-10-05T05:14:30.300Z,6.93
2022-10-05T05:15:12.675Z,5.93
2022-10-05T05:15:41.972Z,6.45
2022-10-05T05:16:09.173Z,6.28
2022-10-05T05:16:33.907Z,6.22
2022-10-05T05:17:02.556Z,6.10
2022-10-05T05:17:34.945Z,6.22
2022-10-05T05:18:07.475Z,6.72
2022-10-05T05:18:46.833Z,5.88
2022-10-05T05:19:23.839Z,6.13
2022-10-05T05:19:51.593Z,6.25
2022-10-05T05:20:19.627Z,7.20
2022-10-05T05:20:51.514Z,6.70
2022-10-05T05:21:20.301Z,6.65
2022-10-05T05:21:46.400Z,6.70
2022-10-05T05:22:14.588Z,6.15
2022-10-05T05:22:43.837Z,7.03
2022-10-05T05:23:11.011Z,6.18
2022-10-05T05:23:38.096Z,6.35
2022-10-05T05:24:05.452Z,6.50
2022-10-05T05:24:34.607Z,6.57
2022-10-05T05:25:17.514Z,6.47
2022-10-05T05:25:44.375Z,6.90
2022-10-05T05:26:15.857Z,7.45
2022-10-05T05:26:49.125Z,7.35
2022-10-05T05:27:27.368Z,7.80
2022-10-05T05:27:53.410Z,7.57
2022-10-05T05:28:19.486Z,6.88
2022-10-05T05:28:45.836Z,7.28
2022-10-05T05:29:14.173Z,7.95
2022-10-05T05:29:43.847Z,6.30
2022-10-05T05:30:13.723Z,7.07
2022-10-05T05:30:39.727Z,7.05
2022-10-05T05:31:08.954Z,7.13
2022-10-05T05:31:35.790Z,7.13
2022-10-05T05:32:01.312Z,6.65
2022-10-05T05:32:29.512Z,6.40
2022-10-05T05:33:06.557Z,6.65
2022-10-05T05:33:32.534Z,6.63
2022-10-05T05:33:59.452Z,6.43
2022-10-05T05:34:36.256Z,6.28
2022-10-05T05:35:14.536Z,7.68
2022-10-05T05:35:59.477Z,7.03
2022-10-05T05:36:48.697Z,6.88
2022-10-05T05:37:15.277Z,6.78
2022-10-05T05:37:42.102Z,6.43
2022-10-05T05:38:11.903Z,6.30
2022-10-05T05:38:35.606Z,6.88
2022-10-05T05:39:05.784Z,6.57
2022-10-05T05:39:29.695Z,6.72
2022-10-05T05:39:55.049Z,7.00
2022-10-05T05:40:20.554Z,6.75
2022-10-05T05:40:45.484Z,6.40
2022-10-05T05:41:10.525Z,6.65
2022-10-05T05:41:37.610Z,6.88
2022-10-05T05:42:02.581Z,6.43
2022-10-05T05:42:31.756Z,6.93
2022-10-05T05:42:57.925Z,7.15
2022-10-05T05:43:24.910Z,6.88
2022-10-05T05:43:54.570Z,7.22
2022-10-05T05:44:20.516Z,7.00
2022-10-05T05:44:46.856Z,7.68
2022-10-05T05:45:16.646Z,7.00
2022-10-05T05:45:41.311Z,7.47
2022-10-05T05:46:07.084Z,6.88
2022-10-05T05:46:58.414Z,7.30
2022-10-05T05:47:20.594Z,7.30
2022-10-05T05:47:47.414Z,7.45
2022-10-05T05:48:16.477Z,7.63
2022-10-05T05:48:42.860Z,6.78
2022-10-05T05:49:08.589Z,6.80
2022-10-05T05:49:41.633Z,6.75
2022-10-05T05:50:17.484Z,7.40
2022-10-05T05:50:43.565Z,6.93
2022-10-05T05:51:08.867Z,7.00
2022-10-05T05:51:35.146Z,7.03
2022-10-05T05:51:59.844Z,7.05
2022-10-05T05:52:24.654Z,7.60
2022-10-05T05:52:49.614Z,6.93
2022-10-05T05:53:15.171Z,6.57
2022-10-05T05:53:39.687Z,6.95
2022-10-05T05:54:18.729Z,7.20
2022-10-05T05:54:42.457Z,7.45
2022-10-05T05:55:08.785Z,7.30
2022-10-05T05:55:34.774Z,7.07
2022-10-05T05:56:00.805Z,7.28
2022-10-05T05:56:26.400Z,6.85
2022-10-05T05:56:52.008Z,6.88
2022-10-05T05:57:17.019Z,6.85
2022-10-05T05:57:41.444Z,7.03
2022-10-05T05:58:05.978Z,7.28
2022-10-05T05:58:31.999Z,6.43
2022-10-05T05:58:56.639Z,6.20
2022-10-05T05:59:21.915Z,6.50
2022-10-05T05:59:53.960Z,6.80
2022-10-05T06:00:21.320Z,7.00
2022-10-05T06:00:46.875Z,7.20
2022-10-05T06:01:30.654Z,7.53
2022-10-05T06:01:58.499Z,7.68
2022-10-05T06:02:24.078Z,8.02
2022-10-05T06:02:49.369Z,8.15
2022-10-05T06:03:14.714Z,8.23
2022-10-05T06:03:39.830Z,8.18
2022-10-05T06:04:11.260Z,7.60
2022-10-05T06:04:36.159Z,8.25
2022-10-05T06:05:03.040Z,8.70
2022-10-05T06:05:30.720Z,9.25
2022-10-05T06:05:55.600Z,9.32
2022-10-05T06:06:18.550Z,9.13
2022-10-05T06:06:44.920Z,9.07
2022-10-05T06:07:10.473Z,9.40
2022-10-05T06:07:33.301Z,9.20
2022-10-05T06:07:56.073Z,8.75
2022-10-05T06:08:22.713Z,9.00